地図

経路データ

SID SEASON NUMBER BASIN SUBBASIN NAME ISO_TIME NATURE LAT LON WMO_WIND WMO_PRES WMO_AGENCY TRACK_TYPE DIST2LAND LANDFALL IFLAG USA_AGENCY USA_ATCF_ID USA_LAT USA_LON USA_RECORD USA_STATUS USA_WIND USA_PRES USA_SSHS USA_R34_NE USA_R34_SE USA_R34_SW USA_R34_NW USA_R50_NE USA_R50_SE USA_R50_SW USA_R50_NW USA_R64_NE USA_R64_SE USA_R64_SW USA_R64_NW USA_POCI USA_ROCI USA_RMW USA_EYE TOKYO_LAT TOKYO_LON TOKYO_GRADE TOKYO_WIND TOKYO_PRES TOKYO_R50_DIR TOKYO_R50_LONG TOKYO_R50_SHORT TOKYO_R30_DIR TOKYO_R30_LONG TOKYO_R30_SHORT TOKYO_LAND CMA_LAT CMA_LON CMA_CAT CMA_WIND CMA_PRES HKO_LAT HKO_LON HKO_CAT HKO_WIND HKO_PRES NEWDELHI_LAT NEWDELHI_LON NEWDELHI_GRADE NEWDELHI_WIND NEWDELHI_PRES NEWDELHI_CI NEWDELHI_DP NEWDELHI_POCI REUNION_LAT REUNION_LON REUNION_TYPE REUNION_WIND REUNION_PRES REUNION_TNUM REUNION_CI REUNION_RMW REUNION_R34_NE REUNION_R34_SE REUNION_R34_SW REUNION_R34_NW REUNION_R50_NE REUNION_R50_SE REUNION_R50_SW REUNION_R50_NW REUNION_R64_NE REUNION_R64_SE REUNION_R64_SW REUNION_R64_NW BOM_LAT BOM_LON BOM_TYPE BOM_WIND BOM_PRES BOM_TNUM BOM_CI BOM_RMW BOM_R34_NE BOM_R34_SE BOM_R34_SW BOM_R34_NW BOM_R50_NE BOM_R50_SE BOM_R50_SW BOM_R50_NW BOM_R64_NE BOM_R64_SE BOM_R64_SW BOM_R64_NW BOM_ROCI BOM_POCI BOM_EYE BOM_POS_METHOD BOM_PRES_METHOD NADI_LAT NADI_LON NADI_CAT NADI_WIND NADI_PRES WELLINGTON_LAT WELLINGTON_LON WELLINGTON_WIND WELLINGTON_PRES DS824_LAT DS824_LON DS824_STAGE DS824_WIND DS824_PRES TD9636_LAT TD9636_LON TD9636_STAGE TD9636_WIND TD9636_PRES TD9635_LAT TD9635_LON TD9635_WIND TD9635_PRES TD9635_ROCI NEUMANN_LAT NEUMANN_LON NEUMANN_CLASS NEUMANN_WIND NEUMANN_PRES MLC_LAT MLC_LON MLC_CLASS MLC_WIND MLC_PRES USA_GUST BOM_GUST BOM_GUST_PER REUNION_GUST REUNION_GUST_PER USA_SEAHGT USA_SEARAD_NE USA_SEARAD_SE USA_SEARAD_SW USA_SEARAD_NW STORM_SPEED STORM_DIR
1933249N16087 1933 49 NI BB NOT_NAMED 1933-09-06 00:00:00 TS 16.3000 87.2000 main 392 377 _________O____ -1 16.3000 87.2000 TC 30 3 270
1933249N16087 1933 49 NI BB NOT_NAMED 1933-09-06 03:00:00 TS 16.3000 87.0350 main 377 361 _________PO___ -1 16.3000 86.9525 TC 30 16.3000 87.2000 1 4 270
1933249N16087 1933 49 NI BB NOT_NAMED 1933-09-06 06:00:00 TS 16.2995 86.7931 main 361 346 _________OP___ -1 16.3000 86.7000 TC 30 16.2987 86.9328 1 5 270
1933249N16087 1933 49 NI BB NOT_NAMED 1933-09-06 09:00:00 TS 16.2991 86.5411 main 339 323 _________PP___ -1 16.3000 86.4425 TC 30 16.2978 86.6725 1 5 270
1933249N16087 1933 49 NI BB NOT_NAMED 1933-09-06 12:00:00 TS 16.2990 86.3130 main 323 308 _________OP___ -1 16.3000 86.2000 TC 30 16.2980 86.4260 1 4 270
1933249N16087 1933 49 NI BB NOT_NAMED 1933-09-06 15:00:00 TS 16.2962 86.0925 main 308 294 _________PO___ -1 16.2925 85.9850 TC 30 16.3000 86.2000 1 4 271
1933249N16087 1933 49 NI BB NOT_NAMED 1933-09-06 18:00:00 TS 16.3027 85.8997 main 294 280 _________OP___ -1 16.3000 85.8000 TC 30 16.3055 85.9993 1 3 275
1933249N16087 1933 49 NI BB NOT_NAMED 1933-09-06 21:00:00 TS 16.3274 85.7312 main 280 265 _________PP___ -1 16.3350 85.6425 TC 30 16.3198 85.8199 1 3 283
1933249N16087 1933 49 NI BB NOT_NAMED 1933-09-07 00:00:00 TS 16.3746 85.5778 main 265 253 _________OP___ -1 16.4000 85.5000 TC 30 16.3493 85.6556 1 3 292
1933249N16087 1933 49 NI BB NOT_NAMED 1933-09-07 03:00:00 TS 16.4462 85.4250 main 253 238 _________PO___ -1 16.4925 85.3500 TC 30 16.4000 85.5000 1 3 299
1933249N16087 1933 49 NI BB NOT_NAMED 1933-09-07 06:00:00 TS 16.5392 85.2674 main 238 217 _________OP___ -1 16.6000 85.2000 TC 30 16.4784 85.3347 1 4 302
1933249N16087 1933 49 NI BB NOT_NAMED 1933-09-07 09:00:00 TS 16.6387 85.1100 main 217 202 _________PP___ -1 16.7000 85.0425 TC 30 16.5775 85.1776 1 4 305
1933249N16087 1933 49 NI BB NOT_NAMED 1933-09-07 12:00:00 TS 16.7439 84.9658 main 202 188 _________OP___ -1 16.8000 84.9000 TC 30 16.6878 85.0316 1 3 310
1933249N16087 1933 49 NI BB NOT_NAMED 1933-09-07 15:00:00 TS 16.8500 84.8462 main 183 168 _________PO___ -1 16.9000 84.7925 TC 30 16.8000 84.9000 1 3 314
1933249N16087 1933 49 NI BB NOT_NAMED 1933-09-07 18:00:00 TS 16.9500 84.7428 main 168 153 _________OP___ -1 17.0000 84.7000 TC 30 16.8999 84.7856 1 3 316
1933249N16087 1933 49 NI BB NOT_NAMED 1933-09-07 21:00:00 TS 17.0500 84.6425 main 153 143 _________PP___ -1 17.1000 84.6000 TC 30 16.9999 84.6849 1 3 316
1933249N16087 1933 49 NI BB NOT_NAMED 1933-09-08 00:00:00 TS 17.1500 84.5459 main 138 128 _________OP___ -1 17.2000 84.5000 TC 30 17.1000 84.5918 1 3 317
1933249N16087 1933 49 NI BB NOT_NAMED 1933-09-08 03:00:00 TS 17.2500 84.4500 main 119 113 _________PO___ -1 17.3000 84.4000 TC 30 17.2000 84.5000 1 3 316
1933249N16087 1933 49 NI BB NOT_NAMED 1933-09-08 06:00:00 TS 17.3480 84.3480 main 107 92 _________OP___ -1 17.4000 84.3000 TC 30 17.2959 84.3959 1 3 314
1933249N16087 1933 49 NI BB NOT_NAMED 1933-09-08 09:00:00 TS 17.4425 84.2425 main 92 84 _________PP___ -1 17.4925 84.1925 TC 30 17.3925 84.2925 1 3 316
1933249N16087 1933 49 NI BB NOT_NAMED 1933-09-08 12:00:00 TS 17.5464 84.1464 main 77 59 _________OP___ -1 17.6000 84.1000 TC 30 17.4928 84.1928 1 3 325
1933249N16087 1933 49 NI BB NOT_NAMED 1933-09-08 15:00:00 TS 17.6750 84.0750 main 59 45 _________PO___ -1 17.7500 84.0500 TC 30 17.6000 84.1000 1 3 335
1933249N16087 1933 49 NI BB NOT_NAMED 1933-09-08 18:00:00 TS 17.8109 84.0210 main 45 35 _________OP___ -1 17.9000 84.0000 TC 30 17.7217 84.0421 1 3 336
1933249N16087 1933 49 NI BB NOT_NAMED 1933-09-08 21:00:00 TS 17.9286 83.9549 main 35 22 _________PP___ -1 18.0075 83.9225 TC 30 17.8498 83.9873 1 3 325
1933249N16087 1933 49 NI BB NOT_NAMED 1933-09-09 00:00:00 TS 18.0390 83.8570 main 22 0 _________OP___ -1 18.1000 83.8000 TC 30 17.9780 83.9139 1 3 314
1933249N16087 1933 49 NI BB NOT_NAMED 1933-09-09 03:00:00 TS 18.1500 83.7112 main 0 0 _________PO___ -1 18.2000 83.6225 TC 30 18.1000 83.8000 1 4 303
1933249N16087 1933 49 NI BB NOT_NAMED 1933-09-09 06:00:00 TS 18.2557 83.5071 main 0 0 _________OP___ -1 18.3000 83.4000 TC 30 18.2114 83.6141 1 5 296
1933249N16087 1933 49 NI BB NOT_NAMED 1933-09-09 09:00:00 TS 18.3576 83.2688 main 0 0 _________PP___ -1 18.4000 83.1500 TC 30 18.3152 83.3876 1 5 293
1933249N16087 1933 49 NI BB NOT_NAMED 1933-09-09 12:00:00 TS 18.4557 83.0211 main 0 0 _________OP___ -1 18.5000 82.9000 TC 30 18.4114 83.1423 1 5 294
1933249N16087 1933 49 NI BB NOT_NAMED 1933-09-09 15:00:00 TS 18.5537 82.7962 main 0 0 _________PO___ -1 18.6075 82.6925 TC 30 18.5000 82.9000 1 4 295
1933249N16087 1933 49 NI BB NOT_NAMED 1933-09-09 18:00:00 TS 18.6389 82.6085 main 0 0 _________OP___ -1 18.7000 82.5000 TC 30 18.5778 82.7169 1 4 293
1933249N16087 1933 49 NI BB NOT_NAMED 1933-09-09 21:00:00 TS 18.6997 82.4298 main 0 0 _________PP___ -1 18.7499 82.3224 TC 30 18.6495 82.5371 1 4 288
1933249N16087 1933 49 NI BB NOT_NAMED 1933-09-10 00:00:00 TS 18.7607 82.2194 main 0 0 _________OP___ -1 18.8000 82.1000 TC 30 18.7215 82.3388 1 5 287
1933249N16087 1933 49 NI BB NOT_NAMED 1933-09-10 03:00:00 TS 18.8463 81.9363 main 0 0 _________PO___ -1 18.8925 81.7725 TC 30 18.8000 82.1000 1 6 287
1933249N16087 1933 49 NI BB NOT_NAMED 1933-09-10 06:00:00 TS 18.9424 81.5945 main 0 0 _________OP___ -1 19.0000 81.4000 TC 30 18.8849 81.7890 1 7 286
1933249N16087 1933 49 NI BB NOT_NAMED 1933-09-10 09:00:00 TS 19.0351 81.2436 main 0 0 _________PP___ -1 19.0924 81.0499 TC 30 18.9778 81.4374 1 7 286
1933249N16087 1933 49 NI BB NOT_NAMED 1933-09-10 12:00:00 TS 19.1409 80.8835 main 0 0 _________OP___ -1 19.2000 80.7000 TC 30 19.0817 81.0671 1 7 289
1933249N16087 1933 49 NI BB NOT_NAMED 1933-09-10 15:00:00 TS 19.2712 80.5213 main 0 0 _________PO___ -1 19.3425 80.3425 TC 30 19.2000 80.7000 1 7 293
1933249N16087 1933 49 NI BB NOT_NAMED 1933-09-10 18:00:00 TS 19.4115 80.1918 main 0 0 _________OP___ -1 19.5000 80.0000 TC 30 19.3230 80.3837 1 7 295
1933249N16087 1933 49 NI BB NOT_NAMED 1933-09-10 21:00:00 TS 19.5521 79.8933 main 0 0 _________PP___ -1 19.6423 79.7148 TC 30 19.4618 80.0719 1 7 297
1933249N16087 1933 49 NI BB NOT_NAMED 1933-09-11 00:00:00 TS 19.7099 79.5746 main 0 0 _________OP___ -1 19.8000 79.4000 TC 30 19.6198 79.7492 1 8 297
1933249N16087 1933 49 NI BB NOT_NAMED 1933-09-11 03:00:00 TS 19.8925 79.1825 main 0 0 _________PO___ -1 19.9851 78.9650 TC 30 19.8000 79.4000 1 9 297
1933249N16087 1933 49 NI BB NOT_NAMED 1933-09-11 06:00:00 TS 20.1018 78.7479 main 0 0 _________OP___ -1 20.2000 78.5000 TC 30 20.0036 78.9958 1 9 299
1933249N16087 1933 49 NI BB NOT_NAMED 1933-09-11 09:00:00 TS 20.3388 78.3288 main 0 0 _________PP___ -1 20.4499 78.0925 TC 30 20.2277 78.5652 1 9 302
1933249N16087 1933 49 NI AS NOT_NAMED 1933-09-11 12:00:00 TS 20.5815 77.9135 main 0 0 _________OP___ -1 20.7000 77.7000 TC 30 20.4629 78.1269 1 9 301
1933249N16087 1933 49 NI AS NOT_NAMED 1933-09-11 15:00:00 TS 20.8000 77.4962 main 0 0 _________PO___ -1 20.9000 77.2923 TC 30 20.7000 77.7000 1 8 300
1933249N16087 1933 49 NI AS NOT_NAMED 1933-09-11 18:00:00 TS 21.0038 77.1280 main 0 0 _________OP___ -1 21.1000 76.9000 TC 30 20.9316 77.2990 1 8 302
1933249N16087 1933 49 NI AS NOT_NAMED 1933-09-11 21:00:00 TS 21.2297 76.7684 main 0 0 _________PP___ -1 21.3376 76.5403 TC 30 21.1577 76.9205 1 8 305
1933249N16087 1933 49 NI AS NOT_NAMED 1933-09-12 00:00:00 TS 21.4533 76.4379 main 0 0 _________OP___ -1 21.6000 76.2000 TC 30 21.3800 76.5568 1 6 305
1933249N16087 1933 49 NI AS NOT_NAMED 1933-09-12 03:00:00 NR 21.6000 76.2000 main 0 __________O___ -1 TC 21.6000 76.2000 1 5 304

IBTrACS Databaseについて

本データベースは、米国NOAAが公開する1842年以降の世界の熱帯低気圧のベストトラックデータアーカイブInternational Best Track Archive for Climate Stewardship (IBTrACS)を、ウェブで閲覧しやすい形式に変換したものです。

最終更新日:2021-10-21